createdAt,value
2023-02-17T00:01:33.367Z,101792.64
2023-02-17T00:04:00.612Z,101794.35
2023-02-17T00:06:31.242Z,101793.37
2023-02-17T00:08:59.472Z,101790.41
2023-02-17T00:11:27.804Z,101787.89
2023-02-17T00:13:56.450Z,101784.02
2023-02-17T00:16:26.015Z,101782.95
2023-02-17T00:18:55.778Z,101780.92
2023-02-17T00:21:26.625Z,101785.50
2023-02-17T00:23:53.781Z,101785.52
2023-02-17T00:26:20.970Z,101785.40
2023-02-17T00:28:48.570Z,101782.76
2023-02-17T00:31:24.433Z,101781.20
2023-02-17T00:33:55.081Z,101779.48
2023-02-17T00:36:22.094Z,101779.02
2023-02-17T00:38:49.110Z,101777.39
2023-02-17T00:41:17.659Z,101776.91
2023-02-17T00:43:45.166Z,101775.89
2023-02-17T00:46:13.000Z,101775.70
2023-02-17T00:48:40.664Z,101772.84
2023-02-17T00:51:08.178Z,101771.08
2023-02-17T00:53:35.513Z,101765.67
2023-02-17T00:56:03.504Z,101764.33
2023-02-17T00:58:30.761Z,101769.92
2023-02-17T01:00:58.519Z,101767.86
2023-02-17T01:03:26.558Z,101770.63
2023-02-17T01:05:54.964Z,101769.77
2023-02-17T01:08:22.864Z,101769.13
2023-02-17T01:10:51.972Z,101769.33
2023-02-17T01:13:19.196Z,101767.80
2023-02-17T01:15:52.457Z,101768.69
2023-02-17T01:18:23.349Z,101764.52
2023-02-17T01:20:51.041Z,101767.16
2023-02-17T01:23:18.170Z,101765.28
2023-02-17T01:25:47.260Z,101764.80
2023-02-17T01:28:20.656Z,101762.95
2023-02-17T01:30:48.512Z,101769.06
2023-02-17T01:33:15.600Z,101769.26
2023-02-17T01:35:42.539Z,101762.03
2023-02-17T01:38:09.551Z,101756.96
2023-02-17T01:40:36.371Z,101754.67
2023-02-17T01:43:03.657Z,101757.97
2023-02-17T01:45:41.032Z,101754.45
2023-02-17T01:48:13.833Z,101750.98
2023-02-17T01:50:48.148Z,101747.84
2023-02-17T01:53:24.264Z,101746.18
2023-02-17T01:55:54.631Z,101740.66
2023-02-17T01:58:24.199Z,101739.04
2023-02-17T02:00:55.589Z,101740.95
2023-02-17T02:03:23.058Z,101742.77
2023-02-17T02:05:51.307Z,101744.04
2023-02-17T02:08:18.542Z,101740.27
2023-02-17T02:10:45.368Z,101742.41
2023-02-17T02:13:12.396Z,101745.02
2023-02-17T02:15:51.756Z,101747.27
2023-02-17T02:18:24.544Z,101747.64
2023-02-17T02:21:28.617Z,101739.59
2023-02-17T02:24:03.338Z,101738.64
2023-02-17T02:26:57.330Z,101734.56
2023-02-17T02:29:42.024Z,101736.98
2023-02-17T02:32:23.989Z,101740.86
2023-02-17T02:34:58.227Z,101734.20
2023-02-17T02:37:51.717Z,101734.46
2023-02-17T02:40:23.821Z,101739.42
2023-02-17T02:42:50.967Z,101733.70
2023-02-17T02:45:18.861Z,101729.11
2023-02-17T02:47:46.105Z,101728.58
2023-02-17T02:50:39.612Z,101722.54
2023-02-17T02:53:24.991Z,101727.20
2023-02-17T02:56:05.641Z,101726.60
2023-02-17T02:58:50.459Z,101727.34
2023-02-17T03:01:37.430Z,101729.02
2023-02-17T03:04:13.863Z,101730.17
2023-02-17T03:06:52.298Z,101734.77
2023-02-17T03:09:24.102Z,101732.58
2023-02-17T03:11:52.847Z,101736.46
2023-02-17T03:14:21.206Z,101737.70
2023-02-17T03:16:49.809Z,101730.67
2023-02-17T03:19:21.416Z,101734.30
2023-02-17T03:22:05.296Z,101733.96
2023-02-17T03:24:33.758Z,101732.92
2023-02-17T03:27:00.665Z,101730.38
2023-02-17T03:29:27.512Z,101732.16
2023-02-17T03:31:54.509Z,101732.30
2023-02-17T03:34:21.518Z,101734.27
2023-02-17T03:36:48.450Z,101734.42
2023-02-17T03:39:16.270Z,101731.11
2023-02-17T03:41:43.176Z,101732.98
2023-02-17T03:44:10.075Z,101737.18
2023-02-17T03:46:40.412Z,101737.95
2023-02-17T03:49:07.302Z,101740.61
2023-02-17T03:51:34.124Z,101742.71
2023-02-17T03:54:01.165Z,101740.09
2023-02-17T03:56:27.970Z,101742.45
2023-02-17T03:58:55.084Z,101747.23
2023-02-17T04:01:22.350Z,101748.95
2023-02-17T04:03:49.449Z,101751.14
2023-02-17T04:06:16.323Z,101745.92
2023-02-17T04:08:43.299Z,101748.86
2023-02-17T04:11:10.206Z,101746.15
2023-02-17T04:13:37.405Z,101740.92
2023-02-17T04:16:05.289Z,101734.77
2023-02-17T04:18:32.733Z,101737.84
2023-02-17T04:20:59.508Z,101733.23
2023-02-17T04:23:26.465Z,101730.52
2023-02-17T04:25:53.842Z,101729.95
2023-02-17T04:28:21.599Z,101730.58
2023-02-17T04:30:50.398Z,101732.92
2023-02-17T04:33:17.628Z,101732.90
2023-02-17T04:35:44.872Z,101735.66
2023-02-17T04:38:12.023Z,101737.98
2023-02-17T04:40:38.843Z,101738.91
2023-02-17T04:43:05.898Z,101734.09
2023-02-17T04:45:34.687Z,101734.83
2023-02-17T04:48:02.038Z,101731.21
2023-02-17T04:50:28.971Z,101729.63
2023-02-17T04:52:56.173Z,101725.33
2023-02-17T04:55:23.239Z,101728.81
2023-02-17T04:57:50.206Z,101728.51
2023-02-17T05:00:17.290Z,101731.50
2023-02-17T05:02:44.542Z,101734.90
2023-02-17T05:05:14.652Z,101740.45
2023-02-17T05:07:42.848Z,101744.84
2023-02-17T05:10:11.118Z,101745.30
2023-02-17T05:12:39.677Z,101754.04
2023-02-17T05:15:08.294Z,101755.27
2023-02-17T05:17:35.325Z,101757.27
2023-02-17T05:20:04.697Z,101757.85
2023-02-17T05:22:31.838Z,101758.54
2023-02-17T05:24:59.023Z,101761.67
2023-02-17T05:27:26.377Z,101756.95
2023-02-17T05:29:54.454Z,101756.48
2023-02-17T05:32:22.555Z,101764.77
2023-02-17T05:34:50.029Z,101765.04
2023-02-17T05:37:16.868Z,101768.80
2023-02-17T05:39:44.022Z,101768.35
2023-02-17T05:42:12.061Z,101771.77
2023-02-17T05:44:39.127Z,101775.70
2023-02-17T05:47:06.260Z,101775.77
2023-02-17T05:49:33.252Z,101778.87
2023-02-17T05:52:00.268Z,101775.30
2023-02-17T05:54:27.053Z,101772.28
2023-02-17T05:56:54.272Z,101772.50
2023-02-17T05:59:21.623Z,101768.36
2023-02-17T06:01:48.868Z,101765.80
2023-02-17T06:04:16.268Z,101771.13
2023-02-17T06:06:43.820Z,101769.74
2023-02-17T06:09:10.990Z,101774.73
2023-02-17T06:11:38.530Z,101774.04
2023-02-17T06:14:06.324Z,101779.48
2023-02-17T06:16:33.732Z,101783.86
2023-02-17T06:19:02.061Z,101782.61
2023-02-17T06:21:47.158Z,101787.00
2023-02-17T06:24:16.283Z,101787.89
2023-02-17T06:26:44.786Z,101789.79
2023-02-17T06:29:15.780Z,101792.66
2023-02-17T06:31:45.408Z,101790.45
2023-02-17T06:34:12.603Z,101787.08
2023-02-17T06:36:39.765Z,101788.79
2023-02-17T06:39:06.706Z,101792.33
2023-02-17T06:41:33.957Z,101790.61
2023-02-17T06:44:01.152Z,101788.45
2023-02-17T06:46:28.552Z,101793.86
2023-02-17T06:48:56.696Z,101794.37
2023-02-17T06:51:26.133Z,101794.37
2023-02-17T06:53:54.516Z,101796.47
2023-02-17T06:56:21.611Z,101799.80
2023-02-17T06:58:49.464Z,101799.56
2023-02-17T07:01:22.904Z,101800.48
2023-02-17T07:03:50.201Z,101804.92
2023-02-17T07:06:17.634Z,101806.75
2023-02-17T07:08:49.138Z,101808.66
2023-02-17T07:11:18.073Z,101808.60
2023-02-17T07:13:46.948Z,101810.63
2023-02-17T07:16:14.987Z,101806.15
2023-02-17T07:18:42.170Z,101809.29
2023-02-17T07:21:09.955Z,101807.77
2023-02-17T07:23:41.796Z,101807.04
2023-02-17T07:26:12.532Z,101803.84
2023-02-17T07:28:40.785Z,101803.41
2023-02-17T07:31:14.904Z,101805.36
2023-02-17T07:33:44.135Z,101803.11
2023-02-17T07:36:17.984Z,101803.34
2023-02-17T07:38:49.809Z,101802.23
2023-02-17T07:41:20.093Z,101800.91
2023-02-17T07:43:48.596Z,101805.27
2023-02-17T07:46:17.128Z,101805.11
2023-02-17T07:48:44.904Z,101802.77
2023-02-17T07:51:15.063Z,101796.15
2023-02-17T07:53:42.620Z,101794.67
2023-02-17T07:56:12.424Z,101796.89
2023-02-17T07:58:41.483Z,101797.79
2023-02-17T08:01:11.177Z,101798.27
2023-02-17T08:03:38.710Z,101802.85
2023-02-17T08:06:18.665Z,101806.94
2023-02-17T08:09:05.782Z,101804.30
2023-02-17T08:11:52.527Z,101807.70
2023-02-17T08:14:24.655Z,101810.92
2023-02-17T08:16:51.974Z,101813.31
2023-02-17T08:19:21.683Z,101819.35
2023-02-17T08:21:48.876Z,101817.06
2023-02-17T08:24:16.116Z,101818.05
2023-02-17T08:26:43.272Z,101816.21
2023-02-17T08:29:14.077Z,101810.93
2023-02-17T08:31:44.134Z,101808.90
2023-02-17T08:34:15.829Z,101805.67
2023-02-17T08:36:43.521Z,101803.09
2023-02-17T08:39:14.910Z,101800.80
2023-02-17T08:41:46.987Z,101803.52
2023-02-17T08:44:19.260Z,101804.02
2023-02-17T08:46:52.899Z,101801.67
2023-02-17T08:49:25.342Z,101799.89
2023-02-17T08:51:55.681Z,101793.71
2023-02-17T08:54:23.707Z,101793.73
2023-02-17T08:56:50.686Z,101786.81
2023-02-17T08:59:17.546Z,101784.84
2023-02-17T09:01:45.068Z,101777.27
2023-02-17T09:04:15.939Z,101778.08
2023-02-17T09:06:48.153Z,101776.22
2023-02-17T09:09:17.630Z,101774.97
2023-02-17T09:11:48.684Z,101775.48
2023-02-17T09:14:27.131Z,101773.92
2023-02-17T09:16:56.536Z,101766.68
2023-02-17T09:19:24.493Z,101759.66
2023-02-17T09:21:52.578Z,101761.05
2023-02-17T09:24:20.529Z,101759.13
2023-02-17T09:26:47.714Z,101757.96
2023-02-17T09:29:15.404Z,101756.58
2023-02-17T09:31:42.710Z,101756.60
2023-02-17T09:34:09.906Z,101747.42
2023-02-17T09:36:40.343Z,101741.68
2023-02-17T09:39:09.988Z,101746.70
2023-02-17T09:41:52.035Z,101747.54
2023-02-17T09:44:39.200Z,101738.73
2023-02-17T09:47:15.930Z,101733.02
2023-02-17T09:49:49.140Z,101729.69
2023-02-17T09:52:28.984Z,101725.11
2023-02-17T09:55:05.134Z,101720.48
2023-02-17T09:57:42.110Z,101716.58
2023-02-17T10:00:16.065Z,101719.13
2023-02-17T10:02:54.143Z,101714.69
2023-02-17T10:05:26.326Z,101709.23
2023-02-17T10:08:02.422Z,101709.63
2023-02-17T10:10:37.945Z,101704.00
2023-02-17T10:13:07.203Z,101697.59
2023-02-17T10:15:44.803Z,101696.02
2023-02-17T10:18:38.306Z,101692.23
2023-02-17T10:21:21.575Z,101688.06
2023-02-17T10:23:52.250Z,101685.84
2023-02-17T10:26:45.944Z,101684.98
2023-02-17T10:30:03.429Z,101684.11
2023-02-17T10:32:48.765Z,101681.37
2023-02-17T10:35:22.571Z,101677.56
2023-02-17T10:38:03.851Z,101676.56
2023-02-17T10:40:31.766Z,101674.48
2023-02-17T10:43:02.304Z,101664.80
2023-02-17T10:45:42.742Z,101666.39
2023-02-17T10:48:18.260Z,101663.79
2023-02-17T10:50:49.820Z,101666.08
2023-02-17T10:53:22.296Z,101667.23
2023-02-17T10:56:10.276Z,101661.02
2023-02-17T10:58:54.503Z,101656.69
2023-02-17T11:01:22.872Z,101654.71
2023-02-17T11:04:19.598Z,101649.86
2023-02-17T11:06:52.628Z,101647.30
2023-02-17T11:09:28.111Z,101643.10
2023-02-17T11:12:11.771Z,101640.67
2023-02-17T11:14:46.437Z,101640.13
2023-02-17T11:17:20.128Z,101640.95
2023-02-17T11:20:08.380Z,101638.91
2023-02-17T11:23:01.285Z,101633.75
2023-02-17T11:25:31.712Z,101627.87
2023-02-17T11:28:02.525Z,101624.21
2023-02-17T11:30:39.986Z,101626.16
2023-02-17T11:33:29.739Z,101621.98
2023-02-17T11:36:04.888Z,101619.39
2023-02-17T11:38:39.842Z,101618.68
2023-02-17T11:41:08.719Z,101615.20
2023-02-17T11:43:38.536Z,101612.64
2023-02-17T11:46:24.977Z,101609.35
2023-02-17T11:49:12.414Z,101607.28
2023-02-17T11:52:00.886Z,101609.21
2023-02-17T11:54:40.338Z,101608.89
2023-02-17T11:57:22.294Z,101605.24
2023-02-17T12:00:28.883Z,101603.66
2023-02-17T12:03:16.698Z,101598.58
2023-02-17T12:06:02.760Z,101599.98
2023-02-17T12:08:48.169Z,101598.23
2023-02-17T12:11:34.921Z,101594.59
2023-02-17T12:14:31.310Z,101592.15
2023-02-17T12:17:12.671Z,101593.72
2023-02-17T12:19:57.292Z,101592.86
2023-02-17T12:22:35.208Z,101590.77
2023-02-17T12:25:19.925Z,101592.52
2023-02-17T12:28:15.792Z,101593.05
2023-02-17T12:31:11.419Z,101593.23
2023-02-17T12:33:49.290Z,101593.23
2023-02-17T12:36:19.221Z,101596.55
2023-02-17T12:39:02.902Z,101593.23
2023-02-17T12:41:37.762Z,101599.20
2023-02-17T12:44:28.240Z,101589.45
2023-02-17T12:47:04.832Z,101589.63
2023-02-17T12:49:52.668Z,101585.80
2023-02-17T12:52:36.336Z,101579.54
2023-02-17T12:55:23.269Z,101572.02
2023-02-17T12:58:04.980Z,101576.03
2023-02-17T13:00:39.717Z,101576.91
2023-02-17T13:03:08.583Z,101571.15
2023-02-17T13:06:03.693Z,101572.89
2023-02-17T13:08:43.389Z,101568.71
2023-02-17T13:11:35.771Z,101573.23
2023-02-17T13:14:11.307Z,101572.20
2023-02-17T13:16:44.919Z,101572.02
2023-02-17T13:19:14.811Z,101566.98
2023-02-17T13:21:55.393Z,101562.96
2023-02-17T13:24:37.168Z,101564.36
2023-02-17T13:27:33.171Z,101562.44
2023-02-17T13:30:17.030Z,101560.67
2023-02-17T13:32:46.665Z,101564.16
2023-02-17T13:35:14.294Z,101565.56
2023-02-17T13:37:45.983Z,101568.17
2023-02-17T13:40:20.703Z,101567.80
2023-02-17T13:42:56.596Z,101564.30
2023-02-17T13:45:33.508Z,101563.79
2023-02-17T13:48:15.602Z,101566.05
2023-02-17T13:50:46.566Z,101561.34
2023-02-17T13:53:32.085Z,101557.50
2023-02-17T13:56:06.408Z,101555.05
2023-02-17T13:58:37.153Z,101547.90
2023-02-17T14:01:08.809Z,101547.03
2023-02-17T14:03:40.049Z,101543.54
2023-02-17T14:06:13.247Z,101539.53
2023-02-17T14:08:43.237Z,101530.98
2023-02-17T14:11:16.681Z,101535.70
2023-02-17T14:13:47.203Z,101534.82
2023-02-17T14:16:43.637Z,101533.42
2023-02-17T14:19:34.862Z,101532.54
2023-02-17T14:22:08.299Z,101536.55
2023-02-17T14:24:40.143Z,101534.97
2023-02-17T14:27:14.411Z,101537.77
2023-02-17T14:29:50.376Z,101536.54
2023-02-17T14:32:45.324Z,101539.84
2023-02-17T14:35:12.747Z,101541.73
2023-02-17T14:37:44.545Z,101532.50
2023-02-17T14:40:23.779Z,101527.05
2023-02-17T14:42:51.893Z,101529.11
2023-02-17T14:45:23.257Z,101524.92
2023-02-17T14:47:52.164Z,101525.26
2023-02-17T14:50:19.797Z,101518.80
2023-02-17T14:52:55.661Z,101525.05
2023-02-17T14:55:41.632Z,101521.20
2023-02-17T14:58:20.073Z,101523.95
2023-02-17T15:00:58.837Z,101524.44
2023-02-17T15:03:35.686Z,101523.39
2023-02-17T15:06:15.346Z,101519.84
2023-02-17T15:08:52.200Z,101519.95
2023-02-17T15:11:45.042Z,101523.89
2023-02-17T15:14:18.395Z,101523.29
2023-02-17T15:16:48.268Z,101524.94
2023-02-17T15:19:19.501Z,101521.71
2023-02-17T15:21:51.315Z,101520.56
2023-02-17T15:24:23.543Z,101525.65
2023-02-17T15:26:51.796Z,101523.29
2023-02-17T15:29:25.239Z,101524.55
2023-02-17T15:31:54.736Z,101529.24
2023-02-17T15:34:34.760Z,101532.73
2023-02-17T15:37:06.333Z,101532.55
2023-02-17T15:39:35.540Z,101532.14
2023-02-17T15:42:15.787Z,101531.39
2023-02-17T15:44:50.066Z,101533.64
2023-02-17T15:47:21.081Z,101536.64
2023-02-17T15:49:48.328Z,101537.23
2023-02-17T15:52:17.244Z,101539.15
2023-02-17T15:54:44.506Z,101540.82
2023-02-17T15:57:24.325Z,101542.67
2023-02-17T15:59:54.995Z,101547.48
2023-02-17T16:02:31.530Z,101549.39
2023-02-17T16:04:58.645Z,101550.55
2023-02-17T16:07:28.836Z,101546.02
2023-02-17T16:09:56.743Z,101542.33
2023-02-17T16:12:27.702Z,101542.49
2023-02-17T16:14:57.161Z,101543.65
2023-02-17T16:17:25.789Z,101539.05
2023-02-17T16:19:57.445Z,101541.95
2023-02-17T16:22:25.060Z,101535.80
2023-02-17T16:24:52.135Z,101531.58
2023-02-17T16:27:19.494Z,101530.85
2023-02-17T16:29:47.063Z,101528.55
2023-02-17T16:32:14.547Z,101530.58
2023-02-17T16:34:42.288Z,101532.89
2023-02-17T16:37:15.840Z,101532.66
2023-02-17T16:39:44.180Z,101533.46
2023-02-17T16:42:14.224Z,101534.64
2023-02-17T16:44:45.798Z,101530.77
2023-02-17T16:47:22.044Z,101530.96
2023-02-17T16:49:49.980Z,101530.21
2023-02-17T16:52:27.064Z,101529.86
2023-02-17T16:54:54.524Z,101531.56
2023-02-17T16:57:23.437Z,101534.23
2023-02-17T16:59:52.478Z,101536.31
2023-02-17T17:02:21.988Z,101535.52
2023-02-17T17:04:50.606Z,101538.73
2023-02-17T17:07:17.908Z,101543.87
2023-02-17T17:09:48.875Z,101543.68
2023-02-17T17:12:23.682Z,101540.20
2023-02-17T17:14:50.942Z,101536.20
2023-02-17T17:17:21.616Z,101533.45
2023-02-17T17:19:49.944Z,101528.69
2023-02-17T17:22:17.137Z,101523.81
2023-02-17T17:24:44.090Z,101524.27
2023-02-17T17:27:11.232Z,101523.28
2023-02-17T17:29:38.148Z,101518.73
2023-02-17T17:32:06.839Z,101516.20
2023-02-17T17:34:35.468Z,101513.71
2023-02-17T17:37:05.676Z,101515.21
2023-02-17T17:39:35.948Z,101519.55
2023-02-17T17:42:06.472Z,101521.25
2023-02-17T17:44:34.675Z,101519.41
2023-02-17T17:47:04.771Z,101513.94
2023-02-17T17:49:37.887Z,101509.59
2023-02-17T17:52:06.257Z,101503.23
2023-02-17T17:54:34.741Z,101498.58
2023-02-17T17:57:03.416Z,101494.13
2023-02-17T17:59:30.448Z,101496.36
2023-02-17T18:02:00.121Z,101502.09
2023-02-17T18:04:27.482Z,101502.64
2023-02-17T18:06:58.663Z,101497.30
2023-02-17T18:09:32.284Z,101491.27
2023-02-17T18:12:10.421Z,101480.30
2023-02-17T18:14:41.535Z,101473.57
2023-02-17T18:17:16.521Z,101470.83
2023-02-17T18:19:47.565Z,101464.21
2023-02-17T18:22:21.709Z,101459.45
2023-02-17T18:24:54.814Z,101457.31
2023-02-17T18:27:25.100Z,101460.75
2023-02-17T18:29:56.319Z,101461.61
2023-02-17T18:32:24.891Z,101457.65
2023-02-17T18:34:52.903Z,101461.44
2023-02-17T18:37:20.676Z,101459.89
2023-02-17T18:39:49.575Z,101453.80
2023-02-17T18:42:16.920Z,101446.80
2023-02-17T18:44:50.926Z,101454.32
2023-02-17T18:47:22.483Z,101453.48
2023-02-17T18:49:51.272Z,101446.73
2023-02-17T18:52:18.521Z,101446.97
2023-02-17T18:54:48.065Z,101443.23
2023-02-17T18:57:16.592Z,101444.70
2023-02-17T18:59:47.784Z,101444.02
2023-02-17T19:02:15.330Z,101439.67
2023-02-17T19:04:42.611Z,101436.52
2023-02-17T19:07:13.879Z,101432.85
2023-02-17T19:09:41.956Z,101432.09
2023-02-17T19:12:13.212Z,101430.73
2023-02-17T19:14:41.443Z,101431.04
2023-02-17T19:17:11.855Z,101428.86
2023-02-17T19:19:41.178Z,101424.33
2023-02-17T19:22:10.345Z,101426.41
2023-02-17T19:24:45.191Z,101429.89
2023-02-17T19:27:15.657Z,101431.26
2023-02-17T19:29:44.625Z,101429.95
2023-02-17T19:32:13.572Z,101420.21
2023-02-17T19:34:42.165Z,101410.41
2023-02-17T19:37:13.075Z,101406.23
2023-02-17T19:39:41.772Z,101403.43
2023-02-17T19:42:10.546Z,101394.49
2023-02-17T19:44:38.679Z,101391.30
2023-02-17T19:47:06.109Z,101392.36
2023-02-17T19:49:33.506Z,101389.29
2023-02-17T19:52:00.846Z,101387.70
2023-02-17T19:54:28.175Z,101382.71
2023-02-17T19:56:56.751Z,101380.08
2023-02-17T19:59:26.628Z,101374.80
2023-02-17T20:01:53.587Z,101375.00
2023-02-17T20:04:22.391Z,101372.14
2023-02-17T20:06:52.143Z,101366.55
2023-02-17T20:09:22.132Z,101356.10
2023-02-17T20:11:52.957Z,101352.83
2023-02-17T20:14:21.977Z,101349.80
2023-02-17T20:16:55.178Z,101348.41
2023-02-17T20:19:22.579Z,101342.73
2023-02-17T20:21:49.831Z,101333.95
2023-02-17T20:24:18.308Z,101335.47
2023-02-17T20:26:53.036Z,101327.65
2023-02-17T20:29:21.587Z,101322.48
2023-02-17T20:31:52.354Z,101319.10
2023-02-17T20:34:36.976Z,101315.27
2023-02-17T20:37:06.327Z,101317.36
2023-02-17T20:39:35.230Z,101318.47
2023-02-17T20:42:03.335Z,101313.98
2023-02-17T20:44:30.455Z,101313.23
2023-02-17T20:46:57.523Z,101312.19
2023-02-17T20:49:26.218Z,101304.77
2023-02-17T20:51:53.898Z,101300.09
2023-02-17T20:54:21.046Z,101296.70
2023-02-17T20:56:47.883Z,101292.83
2023-02-17T20:59:14.784Z,101289.75
2023-02-17T21:01:42.660Z,101288.52
2023-02-17T21:04:10.495Z,101286.98
2023-02-17T21:06:40.736Z,101287.02
2023-02-17T21:09:14.999Z,101283.98
2023-02-17T21:11:43.113Z,101284.17
2023-02-17T21:14:11.184Z,101286.52
2023-02-17T21:16:38.988Z,101280.89
2023-02-17T21:19:06.639Z,101276.96
2023-02-17T21:21:35.082Z,101275.62
2023-02-17T21:24:02.507Z,101274.15
2023-02-17T21:26:29.893Z,101263.29
2023-02-17T21:28:56.874Z,101259.29
2023-02-17T21:31:26.211Z,101250.95
2023-02-17T21:33:53.148Z,101242.13
2023-02-17T21:36:20.273Z,101236.74
2023-02-17T21:38:47.285Z,101235.09
2023-02-17T21:41:17.616Z,101227.13
2023-02-17T21:44:24.156Z,101221.29
2023-02-17T21:46:53.163Z,101211.98
2023-02-17T21:49:20.161Z,101211.63
2023-02-17T21:51:48.820Z,101207.38
2023-02-17T21:54:15.952Z,101205.71
2023-02-17T21:56:42.917Z,101202.36
2023-02-17T21:59:09.914Z,101203.27
2023-02-17T22:01:37.227Z,101196.36
2023-02-17T22:04:05.581Z,101198.42
2023-02-17T22:06:36.839Z,101194.35
2023-02-17T22:09:07.187Z,101192.45
2023-02-17T22:11:38.861Z,101185.14
2023-02-17T22:14:11.700Z,101179.46
2023-02-17T22:16:39.346Z,101180.26
2023-02-17T22:19:13.659Z,101176.98
2023-02-17T22:21:42.412Z,101176.53
2023-02-17T22:24:09.404Z,101168.23
2023-02-17T22:26:36.187Z,101167.42
2023-02-17T22:29:03.660Z,101168.11
2023-02-17T22:31:32.998Z,101164.25
2023-02-17T22:34:06.448Z,101154.77
2023-02-17T22:36:36.012Z,101159.02
2023-02-17T22:39:05.886Z,101155.90
2023-02-17T22:41:35.313Z,101146.77
2023-02-17T22:44:02.571Z,101144.60
2023-02-17T22:46:29.794Z,101147.96
2023-02-17T22:48:59.058Z,101141.13
2023-02-17T22:51:31.346Z,101139.30
2023-02-17T22:53:59.948Z,101128.12
2023-02-17T22:56:28.866Z,101124.88
2023-02-17T22:59:00.108Z,101130.06
2023-02-17T23:01:29.111Z,101125.05
2023-02-17T23:03:56.066Z,101117.92
2023-02-17T23:06:27.336Z,101117.39
2023-02-17T23:08:54.817Z,101112.33
2023-02-17T23:11:44.588Z,101112.19
2023-02-17T23:14:13.322Z,101101.40
2023-02-17T23:16:40.470Z,101104.33
2023-02-17T23:19:10.797Z,101104.79
2023-02-17T23:21:41.448Z,101107.95
2023-02-17T23:24:08.913Z,101104.96
2023-02-17T23:26:35.785Z,101107.22
2023-02-17T23:29:02.914Z,101105.02
2023-02-17T23:31:29.936Z,101109.23
2023-02-17T23:33:56.787Z,101104.27
2023-02-17T23:36:23.812Z,101107.23
2023-02-17T23:38:50.607Z,101093.56
2023-02-17T23:41:17.300Z,101079.11
2023-02-17T23:43:44.587Z,101077.82
2023-02-17T23:46:13.504Z,101071.84
2023-02-17T23:48:40.512Z,101070.55
2023-02-17T23:51:07.914Z,101066.70
2023-02-17T23:53:34.957Z,101065.43
2023-02-17T23:56:08.826Z,101063.47
2023-02-17T23:58:36.164Z,101059.47
